createdAt,value
2022-12-29T00:00:09.401Z,68.70
2022-12-29T00:02:36.399Z,68.60
2022-12-29T00:05:03.550Z,68.50
2022-12-29T00:07:30.383Z,69.10
2022-12-29T00:09:57.258Z,68.50
2022-12-29T00:12:24.131Z,68.50
2022-12-29T00:15:10.262Z,68.50
2022-12-29T00:17:37.092Z,68.50
2022-12-29T00:20:23.244Z,68.70
2022-12-29T00:23:08.684Z,68.90
2022-12-29T00:25:55.720Z,69.10
2022-12-29T00:28:41.152Z,69.00
2022-12-29T00:31:48.267Z,69.00
2022-12-29T00:34:33.682Z,69.00
2022-12-29T00:37:01.420Z,68.90
2022-12-29T00:39:46.763Z,68.70
2022-12-29T00:42:39.784Z,68.70
2022-12-29T00:45:07.053Z,68.80
2022-12-29T00:47:34.069Z,68.90
2022-12-29T00:50:01.143Z,69.00
2022-12-29T00:52:28.023Z,69.00
2022-12-29T00:54:54.899Z,68.90
2022-12-29T00:57:21.772Z,68.80
2022-12-29T00:59:48.755Z,68.80
2022-12-29T01:02:15.713Z,68.80
2022-12-29T01:04:42.767Z,68.60
2022-12-29T01:07:09.631Z,68.70
2022-12-29T01:09:55.088Z,68.60
2022-12-29T01:12:41.529Z,68.40
2022-12-29T01:15:10.576Z,68.40
2022-12-29T01:17:37.388Z,68.30
2022-12-29T01:20:05.221Z,68.30
2022-12-29T01:22:32.067Z,68.60
2022-12-29T01:24:59.002Z,68.90
2022-12-29T01:27:25.842Z,69.00
2022-12-29T01:29:52.775Z,69.10
2022-12-29T01:32:19.835Z,69.30
2022-12-29T01:34:46.679Z,69.30
2022-12-29T01:37:14.925Z,69.60
2022-12-29T01:39:41.734Z,70.10
2022-12-29T01:42:18.230Z,69.40
2022-12-29T01:44:52.375Z,69.10
2022-12-29T01:47:39.589Z,68.80
2022-12-29T01:50:26.887Z,68.60
2022-12-29T01:53:06.611Z,68.30
2022-12-29T01:55:40.380Z,68.30
2022-12-29T01:58:08.528Z,68.40
2022-12-29T02:00:35.444Z,68.50
2022-12-29T02:03:02.492Z,68.50
2022-12-29T02:05:43.261Z,68.60
2022-12-29T02:08:12.284Z,68.70
2022-12-29T02:10:41.578Z,68.70
2022-12-29T02:13:08.410Z,68.80
2022-12-29T02:15:59.615Z,68.70
2022-12-29T02:18:53.883Z,68.70
2022-12-29T02:21:46.599Z,68.50
2022-12-29T02:24:35.344Z,68.10
2022-12-29T02:27:05.187Z,68.30
2022-12-29T02:29:51.060Z,67.90
2022-12-29T02:32:38.774Z,67.80
2022-12-29T02:35:25.975Z,67.60
2022-12-29T02:38:27.088Z,67.60
2022-12-29T02:40:56.688Z,67.40
2022-12-29T02:43:44.481Z,67.00
2022-12-29T02:46:35.073Z,67.10
2022-12-29T02:49:07.828Z,67.30
2022-12-29T02:51:47.804Z,67.40
2022-12-29T02:54:35.716Z,67.20
2022-12-29T02:57:02.615Z,67.10
2022-12-29T02:59:30.002Z,66.90
2022-12-29T03:02:18.317Z,66.40
2022-12-29T03:04:56.479Z,66.20
2022-12-29T03:07:35.307Z,66.50
2022-12-29T03:10:11.241Z,66.30
2022-12-29T03:13:08.491Z,65.80
2022-12-29T03:16:00.902Z,65.90
2022-12-29T03:18:50.691Z,66.00
2022-12-29T03:21:47.956Z,66.40
2022-12-29T03:24:16.407Z,66.50
2022-12-29T03:26:47.962Z,66.60
2022-12-29T03:29:16.432Z,66.50
2022-12-29T03:31:44.779Z,66.20
2022-12-29T03:34:14.678Z,66.00
2022-12-29T03:36:49.845Z,66.20
2022-12-29T03:39:19.580Z,66.20
2022-12-29T03:41:47.629Z,66.40
2022-12-29T03:44:14.733Z,66.30
2022-12-29T03:46:41.689Z,66.20
2022-12-29T03:49:09.114Z,66.40
2022-12-29T03:51:36.004Z,66.60
2022-12-29T03:54:03.179Z,66.90
2022-12-29T03:56:30.010Z,66.90
2022-12-29T03:58:56.905Z,66.70
2022-12-29T04:01:23.841Z,66.70
2022-12-29T04:03:50.837Z,66.70
2022-12-29T04:06:17.887Z,66.50
2022-12-29T04:08:44.728Z,66.30
2022-12-29T04:11:11.601Z,66.30
2022-12-29T04:13:42.024Z,66.30
2022-12-29T04:16:09.556Z,66.00
2022-12-29T04:18:36.453Z,65.90
2022-12-29T04:21:06.574Z,65.90
2022-12-29T04:23:37.152Z,66.20
2022-12-29T04:26:04.976Z,66.00
2022-12-29T04:28:32.407Z,65.90
2022-12-29T04:30:59.509Z,66.50
2022-12-29T04:33:27.012Z,65.60
2022-12-29T04:35:55.038Z,65.70
2022-12-29T04:38:23.958Z,65.70
2022-12-29T04:40:51.498Z,65.50
2022-12-29T04:43:20.327Z,65.50
2022-12-29T04:45:48.973Z,65.60
2022-12-29T04:48:16.244Z,65.60
2022-12-29T04:50:43.807Z,65.60
2022-12-29T04:53:10.792Z,65.80
2022-12-29T04:55:37.640Z,65.80
2022-12-29T04:58:04.743Z,65.80
2022-12-29T05:00:31.573Z,65.70
2022-12-29T05:02:58.669Z,65.70
2022-12-29T05:05:25.636Z,65.70
2022-12-29T05:07:52.726Z,65.80
2022-12-29T05:10:19.640Z,65.70
2022-12-29T05:12:46.519Z,65.80
2022-12-29T05:15:13.428Z,65.40
2022-12-29T05:17:40.324Z,65.60
2022-12-29T05:20:08.243Z,65.50
2022-12-29T05:22:35.187Z,65.70
2022-12-29T05:25:02.095Z,65.50
2022-12-29T05:27:29.179Z,65.40
2022-12-29T05:29:56.310Z,65.30
2022-12-29T05:32:23.265Z,65.20
2022-12-29T05:34:50.804Z,65.30
2022-12-29T05:37:17.747Z,65.30
2022-12-29T05:39:45.243Z,65.10
2022-12-29T05:42:12.393Z,65.10
2022-12-29T05:44:39.335Z,65.10
2022-12-29T05:47:06.283Z,65.20
2022-12-29T05:49:33.922Z,65.20
2022-12-29T05:52:00.821Z,65.20
2022-12-29T05:54:27.727Z,65.40
2022-12-29T05:56:54.628Z,65.30
2022-12-29T05:59:21.483Z,65.20
2022-12-29T06:01:48.460Z,65.10
2022-12-29T06:04:15.978Z,65.50
2022-12-29T06:06:43.483Z,65.70
2022-12-29T06:09:11.554Z,65.80
2022-12-29T06:11:38.850Z,65.80
2022-12-29T06:14:05.767Z,65.50
2022-12-29T06:16:32.744Z,65.60
2022-12-29T06:18:59.623Z,65.10
2022-12-29T06:21:26.527Z,64.90
2022-12-29T06:23:53.398Z,64.70
2022-12-29T06:26:20.409Z,64.30
2022-12-29T06:28:47.220Z,63.80
2022-12-29T06:31:14.317Z,63.80
2022-12-29T06:33:41.226Z,63.90
2022-12-29T06:36:08.254Z,63.80
2022-12-29T06:38:36.288Z,64.00
2022-12-29T06:41:03.278Z,64.00
2022-12-29T06:43:31.468Z,64.00
2022-12-29T06:45:58.341Z,63.90
2022-12-29T06:48:25.505Z,64.20
2022-12-29T06:50:52.360Z,64.20
2022-12-29T06:53:19.221Z,64.50
2022-12-29T06:55:46.101Z,64.50
2022-12-29T06:58:12.962Z,64.50
2022-12-29T07:00:40.566Z,64.60
2022-12-29T07:03:07.591Z,64.70
2022-12-29T07:05:34.802Z,64.80
2022-12-29T07:08:01.653Z,64.80
2022-12-29T07:10:28.839Z,65.00
2022-12-29T07:12:55.644Z,65.00
2022-12-29T07:15:22.460Z,64.80
2022-12-29T07:17:50.693Z,65.00
2022-12-29T07:20:21.933Z,64.90
2022-12-29T07:22:53.290Z,65.00
2022-12-29T07:25:20.144Z,64.90
2022-12-29T07:27:47.000Z,64.90
2022-12-29T07:30:14.175Z,64.80
2022-12-29T07:32:41.556Z,64.80
2022-12-29T07:35:08.690Z,64.70
2022-12-29T07:37:35.987Z,64.80
2022-12-29T07:40:04.467Z,64.80
2022-12-29T07:42:32.694Z,64.80
2022-12-29T07:44:59.596Z,64.90
2022-12-29T07:47:27.510Z,65.20
2022-12-29T07:49:54.503Z,65.10
2022-12-29T07:52:21.378Z,65.40
2022-12-29T07:54:48.331Z,65.10
2022-12-29T07:57:15.202Z,65.50
2022-12-29T07:59:42.130Z,65.80
2022-12-29T08:02:12.630Z,65.30
2022-12-29T08:04:39.835Z,65.00
2022-12-29T08:07:06.756Z,64.40
2022-12-29T08:09:33.566Z,63.90
2022-12-29T08:12:00.447Z,62.80
2022-12-29T08:14:27.342Z,61.20
2022-12-29T08:16:54.254Z,60.50
2022-12-29T08:19:21.134Z,60.40
2022-12-29T08:21:47.970Z,60.30
2022-12-29T08:24:14.810Z,59.90
2022-12-29T08:26:41.644Z,59.90
2022-12-29T08:29:08.523Z,58.70
2022-12-29T08:31:35.796Z,58.50
2022-12-29T08:34:04.379Z,58.50
2022-12-29T08:36:34.068Z,58.10
2022-12-29T08:39:00.929Z,57.60
2022-12-29T08:41:27.778Z,57.10
2022-12-29T08:43:54.638Z,57.20
2022-12-29T08:46:21.545Z,57.10
2022-12-29T08:48:48.507Z,56.70
2022-12-29T08:51:18.214Z,56.90
2022-12-29T08:53:48.369Z,57.10
2022-12-29T08:56:15.218Z,56.60
2022-12-29T08:58:42.094Z,55.50
2022-12-29T09:01:10.305Z,55.80
2022-12-29T09:04:13.040Z,55.30
2022-12-29T09:06:24.166Z,55.10
2022-12-29T09:08:51.002Z,55.70
2022-12-29T09:11:21.951Z,55.80
2022-12-29T09:13:48.980Z,56.10
2022-12-29T09:16:17.249Z,56.20
2022-12-29T09:18:45.100Z,56.50
2022-12-29T09:21:12.838Z,56.80
2022-12-29T09:23:40.407Z,56.80
2022-12-29T09:26:08.630Z,56.70
2022-12-29T09:28:36.290Z,57.10
2022-12-29T09:31:03.637Z,57.20
2022-12-29T09:33:30.695Z,57.50
2022-12-29T09:35:59.229Z,57.70
2022-12-29T09:38:27.379Z,57.40
2022-12-29T09:41:08.383Z,57.30
2022-12-29T09:43:47.500Z,57.60
2022-12-29T09:46:31.183Z,57.60
2022-12-29T09:48:57.991Z,57.90
2022-12-29T09:51:26.586Z,58.00
2022-12-29T09:53:59.736Z,57.90
2022-12-29T09:56:28.862Z,57.90
2022-12-29T09:59:11.932Z,57.90
2022-12-29T10:01:45.416Z,57.90
2022-12-29T10:04:12.487Z,58.10
2022-12-29T10:07:30.856Z,57.90
2022-12-29T10:09:58.005Z,57.90
2022-12-29T10:12:42.458Z,57.50
2022-12-29T10:15:44.747Z,57.80
2022-12-29T10:18:33.719Z,58.00
2022-12-29T10:21:20.543Z,57.80
2022-12-29T10:23:51.686Z,57.80
2022-12-29T10:26:29.005Z,57.30
2022-12-29T10:29:07.800Z,57.10
2022-12-29T10:31:44.293Z,57.50
2022-12-29T10:34:25.823Z,57.00
2022-12-29T10:36:59.678Z,57.60
2022-12-29T10:39:27.644Z,57.40
2022-12-29T10:42:04.714Z,58.10
2022-12-29T10:44:32.799Z,57.10
2022-12-29T10:47:05.718Z,56.40
2022-12-29T10:49:35.204Z,56.50
2022-12-29T10:52:05.125Z,56.30
2022-12-29T10:54:40.151Z,56.50
2022-12-29T10:57:14.520Z,56.70
2022-12-29T10:59:42.593Z,56.90
2022-12-29T11:02:12.340Z,56.90
2022-12-29T11:04:48.325Z,56.90
2022-12-29T11:07:25.051Z,56.50
2022-12-29T11:09:54.286Z,56.70
2022-12-29T11:12:27.612Z,56.40
2022-12-29T11:15:14.396Z,56.20
2022-12-29T11:17:49.919Z,56.00
2022-12-29T11:20:54.043Z,56.10
2022-12-29T11:23:26.460Z,57.10
2022-12-29T11:26:27.597Z,56.80
2022-12-29T11:29:09.218Z,56.50
2022-12-29T11:32:11.089Z,56.50
2022-12-29T11:34:38.014Z,56.10
2022-12-29T11:37:14.163Z,56.70
2022-12-29T11:40:09.163Z,56.10
2022-12-29T11:43:05.827Z,56.10
2022-12-29T11:45:36.175Z,56.40
2022-12-29T11:48:18.453Z,55.90
2022-12-29T11:51:00.675Z,56.60
2022-12-29T11:53:49.766Z,56.50
2022-12-29T11:56:23.912Z,55.60
2022-12-29T11:58:52.059Z,55.80
2022-12-29T12:01:33.986Z,54.10
2022-12-29T12:04:07.901Z,55.00
2022-12-29T12:06:42.480Z,54.70
2022-12-29T12:09:24.273Z,55.00
2022-12-29T12:11:55.058Z,54.20
2022-12-29T12:14:28.361Z,53.60
2022-12-29T12:17:01.110Z,52.70
2022-12-29T12:19:44.505Z,53.00
2022-12-29T12:22:28.866Z,53.10
2022-12-29T12:25:10.592Z,52.60
2022-12-29T12:27:44.299Z,51.60
2022-12-29T12:30:19.277Z,50.90
2022-12-29T12:32:56.078Z,49.00
2022-12-29T12:35:45.653Z,48.70
2022-12-29T12:38:17.169Z,48.60
2022-12-29T12:41:08.012Z,47.70
2022-12-29T12:44:06.025Z,47.80
2022-12-29T12:46:42.710Z,47.80
2022-12-29T12:49:38.669Z,47.50
2022-12-29T12:52:30.566Z,47.30
2022-12-29T12:55:07.601Z,47.40
2022-12-29T12:57:54.886Z,47.80
2022-12-29T13:00:24.448Z,48.20
2022-12-29T13:03:22.799Z,49.50
2022-12-29T13:06:19.202Z,49.40
2022-12-29T13:09:20.907Z,49.20
2022-12-29T13:11:47.683Z,48.60
2022-12-29T13:14:33.091Z,47.30
2022-12-29T13:17:21.977Z,46.10
2022-12-29T13:19:55.460Z,46.10
2022-12-29T13:22:28.797Z,46.30
2022-12-29T13:25:24.963Z,46.30
2022-12-29T13:28:22.108Z,46.30
2022-12-29T13:30:58.218Z,46.20
2022-12-29T13:33:33.781Z,46.50
2022-12-29T13:36:21.508Z,47.10
2022-12-29T13:38:51.782Z,46.80
2022-12-29T13:41:40.683Z,47.20
2022-12-29T13:44:11.461Z,47.40
2022-12-29T13:46:46.122Z,47.90
2022-12-29T13:49:25.445Z,47.50
2022-12-29T13:52:00.796Z,47.70
2022-12-29T13:54:46.703Z,47.10
2022-12-29T13:57:32.439Z,47.10
2022-12-29T14:00:05.423Z,47.80
2022-12-29T14:02:44.216Z,47.40
2022-12-29T14:05:22.969Z,47.90
2022-12-29T14:07:58.362Z,47.90
2022-12-29T14:10:36.400Z,48.10
2022-12-29T14:13:17.260Z,48.20
2022-12-29T14:15:46.952Z,48.60
2022-12-29T14:18:18.568Z,48.50
2022-12-29T14:20:56.139Z,49.00
2022-12-29T14:24:01.091Z,49.10
2022-12-29T14:26:30.825Z,48.80
2022-12-29T14:29:16.119Z,48.60
2022-12-29T14:31:43.241Z,48.70
2022-12-29T14:34:10.066Z,48.90
2022-12-29T14:36:58.823Z,49.00
2022-12-29T14:39:45.321Z,48.90
2022-12-29T14:42:12.152Z,48.90
2022-12-29T14:44:52.423Z,48.40
2022-12-29T14:47:36.483Z,47.50
2022-12-29T14:50:08.534Z,48.00
2022-12-29T14:53:04.096Z,48.60
2022-12-29T14:55:37.455Z,48.40
2022-12-29T14:58:13.527Z,48.50
2022-12-29T15:00:42.250Z,48.90
2022-12-29T15:03:33.174Z,49.00
2022-12-29T15:06:09.500Z,49.50
2022-12-29T15:08:41.766Z,49.00
2022-12-29T15:11:15.504Z,48.90
2022-12-29T15:13:45.019Z,49.10
2022-12-29T15:16:26.244Z,49.20
2022-12-29T15:18:54.389Z,49.70
2022-12-29T15:21:29.218Z,49.50
2022-12-29T15:23:56.317Z,49.30
2022-12-29T15:26:23.997Z,49.60
2022-12-29T15:28:52.955Z,49.80
2022-12-29T15:31:30.118Z,49.90
2022-12-29T15:34:12.528Z,50.40
2022-12-29T15:36:41.062Z,50.40
2022-12-29T15:39:39.006Z,50.50
2022-12-29T15:42:28.574Z,50.50
2022-12-29T15:45:09.303Z,50.50
2022-12-29T15:47:37.538Z,50.40
2022-12-29T15:50:09.858Z,50.70
2022-12-29T15:52:40.871Z,50.90
2022-12-29T15:55:21.522Z,51.30
2022-12-29T15:57:48.549Z,51.50
2022-12-29T16:00:27.526Z,51.80
2022-12-29T16:02:56.662Z,51.80
2022-12-29T16:05:23.737Z,51.90
2022-12-29T16:07:58.787Z,52.10
2022-12-29T16:10:37.771Z,52.30
2022-12-29T16:13:12.559Z,52.40
2022-12-29T16:15:39.519Z,52.70
2022-12-29T16:18:06.475Z,52.70
2022-12-29T16:20:41.984Z,52.50
2022-12-29T16:23:20.466Z,52.70
2022-12-29T16:25:47.717Z,52.80
2022-12-29T16:28:21.693Z,53.10
2022-12-29T16:30:58.104Z,53.20
2022-12-29T16:33:38.365Z,53.40
2022-12-29T16:36:28.854Z,53.60
2022-12-29T16:39:23.111Z,53.90
2022-12-29T16:41:51.425Z,54.10
2022-12-29T16:44:24.454Z,54.30
2022-12-29T16:47:13.013Z,54.60
2022-12-29T16:49:43.186Z,54.70
2022-12-29T16:52:18.014Z,54.90
2022-12-29T16:54:52.716Z,55.10
2022-12-29T16:57:37.921Z,55.30
2022-12-29T17:00:08.548Z,55.50
2022-12-29T17:02:45.766Z,55.70
2022-12-29T17:05:17.138Z,56.00
2022-12-29T17:07:45.045Z,56.10
2022-12-29T17:10:13.412Z,56.10
2022-12-29T17:12:41.694Z,56.20
2022-12-29T17:15:20.825Z,56.40
2022-12-29T17:17:49.215Z,56.60
2022-12-29T17:20:24.931Z,56.70
2022-12-29T17:22:55.247Z,56.80
2022-12-29T17:25:24.043Z,56.90
2022-12-29T17:27:56.998Z,57.20
2022-12-29T17:30:31.222Z,57.30
2022-12-29T17:33:06.127Z,57.20
2022-12-29T17:35:33.052Z,57.40
2022-12-29T17:37:59.895Z,57.50
2022-12-29T17:40:33.486Z,57.60
2022-12-29T17:43:00.818Z,57.70
2022-12-29T17:45:32.553Z,57.80
2022-12-29T17:48:01.818Z,57.90
2022-12-29T17:50:30.851Z,58.00
2022-12-29T17:53:02.028Z,58.00
2022-12-29T17:55:36.745Z,58.00
2022-12-29T17:58:21.133Z,57.90
2022-12-29T18:00:50.161Z,58.00
2022-12-29T18:03:27.873Z,58.10
2022-12-29T18:05:55.408Z,58.20
2022-12-29T18:08:22.477Z,58.30
2022-12-29T18:10:51.909Z,58.40
2022-12-29T18:13:28.092Z,58.40
2022-12-29T18:15:57.957Z,58.50
2022-12-29T18:18:27.149Z,58.70
2022-12-29T18:20:56.362Z,58.70
2022-12-29T18:23:37.673Z,58.80
2022-12-29T18:26:05.716Z,58.70
2022-12-29T18:28:32.939Z,58.80
2022-12-29T18:31:01.888Z,58.80
2022-12-29T18:33:29.221Z,58.90
2022-12-29T18:35:59.353Z,58.90
2022-12-29T18:38:27.474Z,59.00
2022-12-29T18:40:54.450Z,58.90
2022-12-29T18:43:21.344Z,58.90
2022-12-29T18:45:48.956Z,59.30
2022-12-29T18:48:17.438Z,59.40
2022-12-29T18:50:45.260Z,59.40
2022-12-29T18:53:21.286Z,59.30
2022-12-29T18:55:48.116Z,59.60
2022-12-29T18:58:15.449Z,59.70
2022-12-29T19:00:42.988Z,59.60
2022-12-29T19:03:13.464Z,59.70
2022-12-29T19:05:42.454Z,59.80
2022-12-29T19:08:10.726Z,59.60
2022-12-29T19:10:38.730Z,59.50
2022-12-29T19:13:06.296Z,59.60
2022-12-29T19:15:41.103Z,59.70
2022-12-29T19:18:43.017Z,59.80
2022-12-29T19:20:57.518Z,59.90
2022-12-29T19:23:26.004Z,59.80
2022-12-29T19:25:54.783Z,60.00
2022-12-29T19:28:25.059Z,59.70
2022-12-29T19:30:57.071Z,59.70
2022-12-29T19:33:24.716Z,59.50
2022-12-29T19:35:52.526Z,59.20
2022-12-29T19:38:20.288Z,59.20
2022-12-29T19:40:50.822Z,59.30
2022-12-29T19:43:18.365Z,59.20
2022-12-29T19:45:45.660Z,59.10
2022-12-29T19:48:15.106Z,59.10
2022-12-29T19:50:42.517Z,59.30
2022-12-29T19:53:09.458Z,59.40
2022-12-29T19:55:36.391Z,59.70
2022-12-29T19:58:03.761Z,59.90
2022-12-29T20:00:30.682Z,60.00
2022-12-29T20:02:57.744Z,60.10
2022-12-29T20:05:24.807Z,60.10
2022-12-29T20:07:51.691Z,60.10
2022-12-29T20:10:18.601Z,60.10
2022-12-29T20:12:45.555Z,60.30
2022-12-29T20:15:12.586Z,60.50
2022-12-29T20:18:11.657Z,60.60
2022-12-29T20:20:26.290Z,60.70
2022-12-29T20:22:53.132Z,60.70
2022-12-29T20:25:44.185Z,60.70
2022-12-29T20:28:07.311Z,60.70
2022-12-29T20:30:34.196Z,60.70
2022-12-29T20:33:06.110Z,60.90
2022-12-29T20:35:34.829Z,60.80
2022-12-29T20:38:01.901Z,61.00
2022-12-29T20:40:28.814Z,60.70
2022-12-29T20:42:55.776Z,60.80
2022-12-29T20:45:22.598Z,60.80
2022-12-29T20:47:49.564Z,60.80
2022-12-29T20:50:16.411Z,60.80
2022-12-29T20:52:44.059Z,60.90
2022-12-29T20:55:10.948Z,61.00
2022-12-29T20:58:13.611Z,61.00
2022-12-29T21:00:25.862Z,60.90
2022-12-29T21:02:53.263Z,60.90
2022-12-29T21:05:24.992Z,60.80
2022-12-29T21:07:53.410Z,60.70
2022-12-29T21:10:20.871Z,60.70
2022-12-29T21:12:48.541Z,60.40
2022-12-29T21:15:15.917Z,60.40
2022-12-29T21:17:43.788Z,60.40
2022-12-29T21:20:20.216Z,60.50
2022-12-29T21:22:48.333Z,60.50
2022-12-29T21:25:15.209Z,60.40
2022-12-29T21:27:44.198Z,60.50
2022-12-29T21:30:11.888Z,60.60
2022-12-29T21:32:39.360Z,60.70
2022-12-29T21:35:07.207Z,60.80
2022-12-29T21:37:34.326Z,61.00
2022-12-29T21:40:01.227Z,61.20
2022-12-29T21:42:28.103Z,61.20
2022-12-29T21:45:30.305Z,61.20
2022-12-29T21:48:26.507Z,61.20
2022-12-29T21:51:32.079Z,61.20
2022-12-29T21:54:20.992Z,61.20
2022-12-29T21:56:48.843Z,61.30
2022-12-29T21:59:35.516Z,61.40
2022-12-29T22:02:22.427Z,61.30
2022-12-29T22:05:07.889Z,61.50
2022-12-29T22:07:53.365Z,61.20
2022-12-29T22:10:38.653Z,61.30
2022-12-29T22:13:05.536Z,61.40
2022-12-29T22:15:37.395Z,61.30
2022-12-29T22:18:05.029Z,61.30
2022-12-29T22:20:33.913Z,61.30
2022-12-29T22:23:00.954Z,61.40
2022-12-29T22:25:28.299Z,61.50
2022-12-29T22:27:59.280Z,61.50
2022-12-29T22:30:27.890Z,61.60
2022-12-29T22:32:55.008Z,61.60
2022-12-29T22:35:21.897Z,61.60
2022-12-29T22:37:48.882Z,61.80
2022-12-29T22:40:16.186Z,61.80
2022-12-29T22:42:43.050Z,61.80
2022-12-29T22:45:10.289Z,61.80
2022-12-29T22:47:37.311Z,61.80
2022-12-29T22:50:04.968Z,61.70
2022-12-29T22:52:31.853Z,61.80
2022-12-29T22:55:04.572Z,61.80
2022-12-29T22:57:33.512Z,61.70
2022-12-29T23:00:00.332Z,61.90
2022-12-29T23:02:27.716Z,62.00
2022-12-29T23:05:04.126Z,62.00
2022-12-29T23:07:33.295Z,62.20
2022-12-29T23:10:00.240Z,62.30
2022-12-29T23:12:30.533Z,62.40
2022-12-29T23:14:57.558Z,62.30
2022-12-29T23:17:25.373Z,62.30
2022-12-29T23:19:52.400Z,62.40
2022-12-29T23:22:19.899Z,62.50
2022-12-29T23:24:46.768Z,62.60
2022-12-29T23:27:13.973Z,62.70
2022-12-29T23:29:40.825Z,62.70
2022-12-29T23:32:07.733Z,62.80
2022-12-29T23:34:34.632Z,62.80
2022-12-29T23:37:01.488Z,62.80
2022-12-29T23:39:29.217Z,62.90
2022-12-29T23:41:56.039Z,62.90
2022-12-29T23:44:22.897Z,63.00
2022-12-29T23:46:49.828Z,63.00
2022-12-29T23:49:16.727Z,63.00
2022-12-29T23:51:43.596Z,63.00
2022-12-29T23:54:10.477Z,63.00
2022-12-29T23:56:37.338Z,63.10
2022-12-29T23:59:06.006Z,63.10
